sensor_id;sensor_type;location;lat;lon;timestamp;temperature;humidity
12889;DHT22;56848;49.896;11.424;2023-03-25T05:00:50;6.40;99.90
12889;DHT22;56848;49.896;11.424;2023-03-25T05:03:17;6.40;99.90
12889;DHT22;56848;49.896;11.424;2023-03-25T05:05:49;6.30;99.90
12889;DHT22;56848;49.896;11.424;2023-03-25T05:08:14;6.30;99.90
12889;DHT22;56848;49.896;11.424;2023-03-25T05:10:40;6.30;99.90
12889;DHT22;56848;49.896;11.424;2023-03-25T05:13:07;6.30;99.90
12889;DHT22;56848;49.896;11.424;2023-03-25T05:15:35;6.30;99.90
12889;DHT22;56848;49.896;11.424;2023-03-25T05:18:08;6.30;99.90
12889;DHT22;56848;49.896;11.424;2023-03-25T05:20:39;6.30;99.90
12889;DHT22;56848;49.896;11.424;2023-03-25T05:23:09;6.30;99.90
12889;DHT22;56848;49.896;11.424;2023-03-25T05:25:37;6.20;99.90
12889;DHT22;56848;49.896;11.424;2023-03-25T05:28:03;6.20;99.90
12889;DHT22;56848;49.896;11.424;2023-03-25T05:30:34;6.20;99.90
12889;DHT22;56848;49.896;11.424;2023-03-25T05:33:04;6.20;99.90
12889;DHT22;56848;49.896;11.424;2023-03-25T05:35:29;6.20;99.90
12889;DHT22;56848;49.896;11.424;2023-03-25T05:37:55;6.20;99.90
12889;DHT22;56848;49.896;11.424;2023-03-25T05:40:21;6.20;99.90
12889;DHT22;56848;49.896;11.424;2023-03-25T05:42:47;6.10;99.90
12889;DHT22;56848;49.896;11.424;2023-03-25T05:45:14;6.10;99.90
12889;DHT22;56848;49.896;11.424;2023-03-25T05:47:41;6.10;99.90
12889;DHT22;56848;49.896;11.424;2023-03-25T05:50:07;6.00;99.90
12889;DHT22;56848;49.896;11.424;2023-03-25T05:52:34;6.00;99.90
12889;DHT22;56848;49.896;11.424;2023-03-25T05:55:01;6.00;99.90
12889;DHT22;56848;49.896;11.424;2023-03-25T05:57:27;6.10;99.90
12889;DHT22;56848;49.896;11.424;2023-03-25T05:59:52;6.00;99.90
12889;DHT22;56848;49.896;11.424;2023-03-25T06:02:18;6.00;99.90
12889;DHT22;56848;49.896;11.424;2023-03-25T06:04:47;6.00;99.90
12889;DHT22;56848;49.896;11.424;2023-03-25T06:07:15;6.00;99.90
12889;DHT22;56848;49.896;11.424;2023-03-25T06:09:47;6.00;99.90
12889;DHT22;56848;49.896;11.424;2023-03-25T06:12:18;6.00;99.90
12889;DHT22;56848;49.896;11.424;2023-03-25T06:14:44;6.00;99.90
12889;DHT22;56848;49.896;11.424;2023-03-25T06:17:15;6.00;99.90
12889;DHT22;56848;49.896;11.424;2023-03-25T06:19:40;6.00;99.90
12889;DHT22;56848;49.896;11.424;2023-03-25T06:22:08;6.00;99.90
12889;DHT22;56848;49.896;11.424;2023-03-25T06:24:35;6.00;99.90
12889;DHT22;56848;49.896;11.424;2023-03-25T06:27:02;6.00;99.90
12889;DHT22;56848;49.896;11.424;2023-03-25T06:29:27;6.10;99.90
12889;DHT22;56848;49.896;11.424;2023-03-25T06:31:53;6.10;99.90
12889;DHT22;56848;49.896;11.424;2023-03-25T06:34:18;6.10;99.90
12889;DHT22;56848;49.896;11.424;2023-03-25T06:36:44;6.10;99.90
12889;DHT22;56848;49.896;11.424;2023-03-25T06:39:15;6.20;99.90
12889;DHT22;56848;49.896;11.424;2023-03-25T06:41:41;6.30;99.90
12889;DHT22;56848;49.896;11.424;2023-03-25T06:44:06;6.30;99.90
12889;DHT22;56848;49.896;11.424;2023-03-25T06:46:32;6.30;99.90
12889;DHT22;56848;49.896;11.424;2023-03-25T06:48:57;6.30;99.90
12889;DHT22;56848;49.896;11.424;2023-03-25T06:51:23;6.30;99.90
12889;DHT22;56848;49.896;11.424;2023-03-25T06:53:48;6.20;99.90
12889;DHT22;56848;49.896;11.424;2023-03-25T06:56:14;6.20;99.90
12889;DHT22;56848;49.896;11.424;2023-03-25T06:58:40;6.20;99.90
12889;DHT22;56848;49.896;11.424;2023-03-25T07:01:06;6.30;99.90
12889;DHT22;56848;49.896;11.424;2023-03-25T07:03:33;6.30;99.90
12889;DHT22;56848;49.896;11.424;2023-03-25T07:05:59;6.30;99.90
12889;DHT22;56848;49.896;11.424;2023-03-25T07:08:24;6.30;99.90
12889;DHT22;56848;49.896;11.424;2023-03-25T07:10:50;6.40;99.90
12889;DHT22;56848;49.896;11.424;2023-03-25T07:13:16;6.40;99.90
12889;DHT22;56848;49.896;11.424;2023-03-25T07:15:42;6.50;99.90
12889;DHT22;56848;49.896;11.424;2023-03-25T07:18:07;6.50;99.90
12889;DHT22;56848;49.896;11.424;2023-03-25T07:20:33;6.40;99.90
12889;DHT22;56848;49.896;11.424;2023-03-25T07:22:58;6.40;99.90
12889;DHT22;56848;49.896;11.424;2023-03-25T07:25:24;6.40;99.90
12889;DHT22;56848;49.896;11.424;2023-03-25T07:27:50;6.30;99.90
12889;DHT22;56848;49.896;11.424;2023-03-25T07:30:16;6.30;99.90
12889;DHT22;56848;49.896;11.424;2023-03-25T07:32:43;6.20;99.90
12889;DHT22;56848;49.896;11.424;2023-03-25T07:35:09;6.20;99.90
12889;DHT22;56848;49.896;11.424;2023-03-25T07:37:35;6.10;99.90
12889;DHT22;56848;49.896;11.424;2023-03-25T07:40:01;6.00;99.90
12889;DHT22;56848;49.896;11.424;2023-03-25T07:42:26;6.10;99.90
12889;DHT22;56848;49.896;11.424;2023-03-25T07:44:52;6.10;99.90
12889;DHT22;56848;49.896;11.424;2023-03-25T07:47:17;6.00;99.90
12889;DHT22;56848;49.896;11.424;2023-03-25T07:49:43;6.00;99.90
12889;DHT22;56848;49.896;11.424;2023-03-25T07:52:08;6.00;99.90
12889;DHT22;56848;49.896;11.424;2023-03-25T07:54:34;6.00;99.90
12889;DHT22;56848;49.896;11.424;2023-03-25T07:57:00;6.00;99.90
12889;DHT22;56848;49.896;11.424;2023-03-25T07:59:26;6.10;99.90
12889;DHT22;56848;49.896;11.424;2023-03-25T08:01:52;6.10;99.90
12889;DHT22;56848;49.896;11.424;2023-03-25T08:04:17;6.20;99.90
12889;DHT22;56848;49.896;11.424;2023-03-25T08:06:43;6.20;99.90
12889;DHT22;56848;49.896;11.424;2023-03-25T08:09:09;6.30;99.90
12889;DHT22;56848;49.896;11.424;2023-03-25T08:11:34;6.30;99.90
12889;DHT22;56848;49.896;11.424;2023-03-25T08:14:00;6.30;99.90
12889;DHT22;56848;49.896;11.424;2023-03-25T08:16:26;6.30;99.90
12889;DHT22;56848;49.896;11.424;2023-03-25T08:18:51;6.30;99.90
12889;DHT22;56848;49.896;11.424;2023-03-25T08:21:18;6.40;99.90
12889;DHT22;56848;49.896;11.424;2023-03-25T08:23:53;6.40;99.90
12889;DHT22;56848;49.896;11.424;2023-03-25T08:26:26;6.40;99.90
12889;DHT22;56848;49.896;11.424;2023-03-25T08:28:52;6.40;99.90
12889;DHT22;56848;49.896;11.424;2023-03-25T08:31:19;6.40;99.90
12889;DHT22;56848;49.896;11.424;2023-03-25T08:33:46;6.40;99.90
12889;DHT22;56848;49.896;11.424;2023-03-25T08:36:11;6.50;99.90
12889;DHT22;56848;49.896;11.424;2023-03-25T08:38:39;6.40;99.90
12889;DHT22;56848;49.896;11.424;2023-03-25T08:41:06;6.50;99.90
12889;DHT22;56848;49.896;11.424;2023-03-25T08:43:31;6.60;99.90
12889;DHT22;56848;49.896;11.424;2023-03-25T08:45:57;6.70;99.90
12889;DHT22;56848;49.896;11.424;2023-03-25T08:48:23;6.70;99.90
12889;DHT22;56848;49.896;11.424;2023-03-25T08:50:49;6.80;99.90
12889;DHT22;56848;49.896;11.424;2023-03-25T08:53:15;6.90;99.90
12889;DHT22;56848;49.896;11.424;2023-03-25T08:55:40;6.90;99.90
12889;DHT22;56848;49.896;11.424;2023-03-25T08:58:06;6.90;99.90
12889;DHT22;56848;49.896;11.424;2023-03-25T09:00:33;6.90;99.90
12889;DHT22;56848;49.896;11.424;2023-03-25T09:03:01;7.00;99.90
12889;DHT22;56848;49.896;11.424;2023-03-25T09:05:27;7.10;99.90
12889;DHT22;56848;49.896;11.424;2023-03-25T09:07:52;7.20;99.90
12889;DHT22;56848;49.896;11.424;2023-03-25T09:10:18;7.20;99.90
12889;DHT22;56848;49.896;11.424;2023-03-25T09:12:43;7.20;99.90
12889;DHT22;56848;49.896;11.424;2023-03-25T09:15:10;7.20;99.90
12889;DHT22;56848;49.896;11.424;2023-03-25T09:17:37;7.20;99.90
12889;DHT22;56848;49.896;11.424;2023-03-25T09:20:03;7.30;99.90
12889;DHT22;56848;49.896;11.424;2023-03-25T09:22:33;7.30;99.90
12889;DHT22;56848;49.896;11.424;2023-03-25T09:24:59;7.30;99.90
12889;DHT22;56848;49.896;11.424;2023-03-25T09:27:24;7.30;99.90
12889;DHT22;56848;49.896;11.424;2023-03-25T09:29:50;7.30;99.90
12889;DHT22;56848;49.896;11.424;2023-03-25T09:32:15;7.30;99.90
12889;DHT22;56848;49.896;11.424;2023-03-25T09:34:43;7.50;99.90
12889;DHT22;56848;49.896;11.424;2023-03-25T09:37:09;7.50;99.90
12889;DHT22;56848;49.896;11.424;2023-03-25T09:39:35;7.50;99.90
12889;DHT22;56848;49.896;11.424;2023-03-25T09:47:18;7.70;99.90
12889;DHT22;56848;49.896;11.424;2023-03-25T09:49:47;7.80;99.90
12889;DHT22;56848;49.896;11.424;2023-03-25T09:52:22;7.60;99.90
12889;DHT22;56848;49.896;11.424;2023-03-25T09:54:52;7.80;99.90
12889;DHT22;56848;49.896;11.424;2023-03-25T09:57:22;7.90;99.90
12889;DHT22;56848;49.896;11.424;2023-03-25T09:59:51;8.10;99.90
12889;DHT22;56848;49.896;11.424;2023-03-25T10:11:06;8.20;99.90
12889;DHT22;56848;49.896;11.424;2023-03-25T10:13:49;8.00;99.90
12889;DHT22;56848;49.896;11.424;2023-03-25T10:16:57;8.10;99.90
12889;DHT22;56848;49.896;11.424;2023-03-25T10:21:57;8.00;99.90
12889;DHT22;56848;49.896;11.424;2023-03-25T10:25:01;8.10;99.90
12889;DHT22;56848;49.896;11.424;2023-03-25T10:27:37;8.20;99.90
12889;DHT22;56848;49.896;11.424;2023-03-25T10:30:25;8.30;99.90
12889;DHT22;56848;49.896;11.424;2023-03-25T10:32:56;8.30;99.90
12889;DHT22;56848;49.896;11.424;2023-03-25T10:35:30;8.50;99.90
12889;DHT22;56848;49.896;11.424;2023-03-25T10:38:05;8.60;99.90
12889;DHT22;56848;49.896;11.424;2023-03-25T10:40:44;8.60;99.90
12889;DHT22;56848;49.896;11.424;2023-03-25T10:43:35;8.70;99.90
12889;DHT22;56848;49.896;11.424;2023-03-25T10:46:33;8.80;99.90
12889;DHT22;56848;49.896;11.424;2023-03-25T10:49:01;8.90;99.90
12889;DHT22;56848;49.896;11.424;2023-03-25T10:51:30;9.30;99.90
12889;DHT22;56848;49.896;11.424;2023-03-25T10:53:57;9.80;99.90
12889;DHT22;56848;49.896;11.424;2023-03-25T10:56:40;9.80;99.90
12889;DHT22;56848;49.896;11.424;2023-03-25T10:59:36;9.60;99.90
12889;DHT22;56848;49.896;11.424;2023-03-25T11:02:19;9.40;99.90
12889;DHT22;56848;49.896;11.424;2023-03-25T11:04:48;9.40;99.90
12889;DHT22;56848;49.896;11.424;2023-03-25T11:07:24;9.50;99.90
12889;DHT22;56848;49.896;11.424;2023-03-25T11:09:51;9.60;99.90
12889;DHT22;56848;49.896;11.424;2023-03-25T11:12:18;9.70;99.90
12889;DHT22;56848;49.896;11.424;2023-03-25T11:14:53;9.70;99.90
12889;DHT22;56848;49.896;11.424;2023-03-25T11:17:19;9.60;99.90
12889;DHT22;56848;49.896;11.424;2023-03-25T11:20:00;9.50;99.90
12889;DHT22;56848;49.896;11.424;2023-03-25T11:22:34;9.40;99.90
12889;DHT22;56848;49.896;11.424;2023-03-25T11:25:06;9.10;99.90
12889;DHT22;56848;49.896;11.424;2023-03-25T11:27:52;8.90;99.90
12889;DHT22;56848;49.896;11.424;2023-03-25T11:30:21;9.30;99.90
12889;DHT22;56848;49.896;11.424;2023-03-25T11:32:57;9.50;99.90
12889;DHT22;56848;49.896;11.424;2023-03-25T11:35:26;9.30;99.90
12889;DHT22;56848;49.896;11.424;2023-03-25T11:37:57;9.60;99.90
12889;DHT22;56848;49.896;11.424;2023-03-25T11:40:24;9.70;99.90
12889;DHT22;56848;49.896;11.424;2023-03-25T11:42:54;9.60;99.90
12889;DHT22;56848;49.896;11.424;2023-03-25T11:47:58;9.20;99.90
12889;DHT22;56848;49.896;11.424;2023-03-25T11:50:27;9.10;99.90
12889;DHT22;56848;49.896;11.424;2023-03-25T11:52:56;8.90;99.90
12889;DHT22;56848;49.896;11.424;2023-03-25T11:57:52;7.90;99.90
12889;DHT22;56848;49.896;11.424;2023-03-25T12:03:18;8.00;99.90
12889;DHT22;56848;49.896;11.424;2023-03-25T12:06:12;8.30;99.90
12889;DHT22;56848;49.896;11.424;2023-03-25T12:08:47;8.60;99.90
12889;DHT22;56848;49.896;11.424;2023-03-25T12:11:17;8.20;99.90
12889;DHT22;56848;49.896;11.424;2023-03-25T12:20:02;8.50;99.90
12889;DHT22;56848;49.896;11.424;2023-03-25T12:22:57;8.50;99.90
12889;DHT22;56848;49.896;11.424;2023-03-25T12:28:32;8.40;99.90
12889;DHT22;56848;49.896;11.424;2023-03-25T12:34:10;8.40;99.90
12889;DHT22;56848;49.896;11.424;2023-03-25T12:41:41;8.60;99.90
12889;DHT22;56848;49.896;11.424;2023-03-25T12:47:42;8.70;99.90
12889;DHT22;56848;49.896;11.424;2023-03-25T12:50:16;8.40;99.90
12889;DHT22;56848;49.896;11.424;2023-03-25T12:56:12;8.20;99.90
12889;DHT22;56848;49.896;11.424;2023-03-25T13:02:12;7.80;99.90
12889;DHT22;56848;49.896;11.424;2023-03-25T13:12:31;6.50;99.90
12889;DHT22;56848;49.896;11.424;2023-03-25T13:17:39;6.80;99.90
12889;DHT22;56848;49.896;11.424;2023-03-25T13:20:08;7.40;99.90
12889;DHT22;56848;49.896;11.424;2023-03-25T13:22:41;8.00;99.90
12889;DHT22;56848;49.896;11.424;2023-03-25T13:25:34;8.20;99.90
12889;DHT22;56848;49.896;11.424;2023-03-25T13:28:09;8.50;99.90
12889;DHT22;56848;49.896;11.424;2023-03-25T13:30:38;8.90;99.90
12889;DHT22;56848;49.896;11.424;2023-03-25T13:33:10;9.00;99.90
12889;DHT22;56848;49.896;11.424;2023-03-25T13:38:16;8.20;99.90
12889;DHT22;56848;49.896;11.424;2023-03-25T13:41:27;8.00;99.90
12889;DHT22;56848;49.896;11.424;2023-03-25T13:44:17;7.90;99.90
12889;DHT22;56848;49.896;11.424;2023-03-25T13:47:00;7.70;99.90
12889;DHT22;56848;49.896;11.424;2023-03-25T13:49:45;7.70;99.90
12889;DHT22;56848;49.896;11.424;2023-03-25T13:52:13;7.60;99.90
12889;DHT22;56848;49.896;11.424;2023-03-25T13:54:51;7.60;99.90
12889;DHT22;56848;49.896;11.424;2023-03-25T14:00:26;7.00;99.90
12889;DHT22;56848;49.896;11.424;2023-03-25T14:05:55;6.60;99.90
12889;DHT22;56848;49.896;11.424;2023-03-25T14:13:37;6.80;99.90
12889;DHT22;56848;49.896;11.424;2023-03-25T14:16:07;6.80;99.90
12889;DHT22;56848;49.896;11.424;2023-03-25T14:18:48;6.60;99.90
12889;DHT22;56848;49.896;11.424;2023-03-25T14:21:41;7.00;99.90
12889;DHT22;56848;49.896;11.424;2023-03-25T14:24:17;7.20;99.90
12889;DHT22;56848;49.896;11.424;2023-03-25T14:26:48;7.20;99.90
12889;DHT22;56848;49.896;11.424;2023-03-25T14:29:23;7.30;99.90
12889;DHT22;56848;49.896;11.424;2023-03-25T14:34:41;7.20;99.90
12889;DHT22;56848;49.896;11.424;2023-03-25T14:42:02;8.20;99.90
12889;DHT22;56848;49.896;11.424;2023-03-25T14:44:31;8.30;99.90
12889;DHT22;56848;49.896;11.424;2023-03-25T14:49:55;8.40;99.90
12889;DHT22;56848;49.896;11.424;2023-03-25T14:52:42;8.50;99.90
12889;DHT22;56848;49.896;11.424;2023-03-25T14:58:00;8.60;99.90
12889;DHT22;56848;49.896;11.424;2023-03-25T15:00:40;8.90;99.90
12889;DHT22;56848;49.896;11.424;2023-03-25T15:03:12;8.60;99.90
12889;DHT22;56848;49.896;11.424;2023-03-25T15:05:39;8.90;99.90
12889;DHT22;56848;49.896;11.424;2023-03-25T15:10:46;8.60;99.90
12889;DHT22;56848;49.896;11.424;2023-03-25T15:13:25;8.40;99.90
12889;DHT22;56848;49.896;11.424;2023-03-25T15:15:56;8.40;99.90
12889;DHT22;56848;49.896;11.424;2023-03-25T15:21:03;8.60;99.90
12889;DHT22;56848;49.896;11.424;2023-03-25T15:24:08;8.20;99.90
12889;DHT22;56848;49.896;11.424;2023-03-25T15:26:42;8.10;99.90
12889;DHT22;56848;49.896;11.424;2023-03-25T15:34:44;7.70;99.90
12889;DHT22;56848;49.896;11.424;2023-03-25T15:46:00;8.20;99.90
12889;DHT22;56848;49.896;11.424;2023-03-25T15:53:54;7.70;99.90
12889;DHT22;56848;49.896;11.424;2023-03-25T15:56:26;7.80;99.90
12889;DHT22;56848;49.896;11.424;2023-03-25T15:58:59;8.00;99.90
12889;DHT22;56848;49.896;11.424;2023-03-25T16:01:32;8.50;99.90
12889;DHT22;56848;49.896;11.424;2023-03-25T16:04:38;9.60;99.90
12889;DHT22;56848;49.896;11.424;2023-03-25T16:07:05;9.00;99.90
12889;DHT22;56848;49.896;11.424;2023-03-25T16:09:38;8.20;99.90
12889;DHT22;56848;49.896;11.424;2023-03-25T16:12:08;7.80;99.90
12889;DHT22;56848;49.896;11.424;2023-03-25T16:14:34;7.60;99.90
12889;DHT22;56848;49.896;11.424;2023-03-25T16:17:03;7.70;99.90
12889;DHT22;56848;49.896;11.424;2023-03-25T16:19:34;8.00;99.90
12889;DHT22;56848;49.896;11.424;2023-03-25T16:22:14;8.00;99.90
12889;DHT22;56848;49.896;11.424;2023-03-25T16:24:40;7.80;99.90
12889;DHT22;56848;49.896;11.424;2023-03-25T16:27:25;7.60;99.90
12889;DHT22;56848;49.896;11.424;2023-03-25T16:29:54;7.30;99.90
12889;DHT22;56848;49.896;11.424;2023-03-25T16:32:23;7.10;99.90
12889;DHT22;56848;49.896;11.424;2023-03-25T16:34:49;7.00;99.90
12889;DHT22;56848;49.896;11.424;2023-03-25T16:37:16;6.80;99.90
12889;DHT22;56848;49.896;11.424;2023-03-25T16:39:43;6.80;99.90
12889;DHT22;56848;49.896;11.424;2023-03-25T16:42:28;6.80;99.90
12889;DHT22;56848;49.896;11.424;2023-03-25T16:45:00;6.70;99.90
12889;DHT22;56848;49.896;11.424;2023-03-25T16:47:26;6.70;99.90
12889;DHT22;56848;49.896;11.424;2023-03-25T16:49:54;6.70;99.90
12889;DHT22;56848;49.896;11.424;2023-03-25T16:52:25;6.60;99.90
12889;DHT22;56848;49.896;11.424;2023-03-25T16:57:24;6.60;99.90
12889;DHT22;56848;49.896;11.424;2023-03-25T16:59:51;6.60;99.90
12889;DHT22;56848;49.896;11.424;2023-03-25T17:02:26;6.60;99.90
12889;DHT22;56848;49.896;11.424;2023-03-25T17:04:53;6.60;99.90
12889;DHT22;56848;49.896;11.424;2023-03-25T17:07:23;6.60;99.90
12889;DHT22;56848;49.896;11.424;2023-03-25T17:09:56;6.60;99.90
12889;DHT22;56848;49.896;11.424;2023-03-25T17:12:24;6.50;99.90
12889;DHT22;56848;49.896;11.424;2023-03-25T17:14:54;6.60;99.90
12889;DHT22;56848;49.896;11.424;2023-03-25T17:19:52;6.70;99.90
12889;DHT22;56848;49.896;11.424;2023-03-25T17:22:35;6.70;99.90
12889;DHT22;56848;49.896;11.424;2023-03-25T17:25:25;6.60;99.90
12889;DHT22;56848;49.896;11.424;2023-03-25T17:27:55;6.40;99.90
12889;DHT22;56848;49.896;11.424;2023-03-25T17:32:53;6.30;99.90
12889;DHT22;56848;49.896;11.424;2023-03-25T17:35:32;6.30;99.90
12889;DHT22;56848;49.896;11.424;2023-03-25T17:37:58;6.20;99.90
12889;DHT22;56848;49.896;11.424;2023-03-25T17:40:26;6.30;99.90
12889;DHT22;56848;49.896;11.424;2023-03-25T17:42:53;6.20;99.90
12889;DHT22;56848;49.896;11.424;2023-03-25T17:45:19;6.20;99.90
12889;DHT22;56848;49.896;11.424;2023-03-25T17:47:48;6.10;99.90
12889;DHT22;56848;49.896;11.424;2023-03-25T17:50:16;6.10;99.90
12889;DHT22;56848;49.896;11.424;2023-03-25T17:52:43;6.10;99.90
12889;DHT22;56848;49.896;11.424;2023-03-25T17:55:09;6.30;99.90
12889;DHT22;56848;49.896;11.424;2023-03-25T17:57:35;6.20;99.90
12889;DHT22;56848;49.896;11.424;2023-03-25T18:00:02;6.10;99.90
12889;DHT22;56848;49.896;11.424;2023-03-25T18:02:32;6.10;99.90
12889;DHT22;56848;49.896;11.424;2023-03-25T18:04:58;6.20;99.90
12889;DHT22;56848;49.896;11.424;2023-03-25T18:07:23;6.30;99.90
12889;DHT22;56848;49.896;11.424;2023-03-25T18:09:49;6.40;99.90
12889;DHT22;56848;49.896;11.424;2023-03-25T18:12:14;6.50;99.90
12889;DHT22;56848;49.896;11.424;2023-03-25T18:14:40;6.60;99.90
12889;DHT22;56848;49.896;11.424;2023-03-25T18:17:11;6.60;99.90
12889;DHT22;56848;49.896;11.424;2023-03-25T18:19:36;6.50;99.90
12889;DHT22;56848;49.896;11.424;2023-03-25T18:22:02;6.50;99.90
12889;DHT22;56848;49.896;11.424;2023-03-25T18:24:28;6.50;99.90
12889;DHT22;56848;49.896;11.424;2023-03-25T18:26:54;6.40;99.90
12889;DHT22;56848;49.896;11.424;2023-03-25T18:29:24;6.30;99.90
12889;DHT22;56848;49.896;11.424;2023-03-25T18:31:52;6.30;99.90
12889;DHT22;56848;49.896;11.424;2023-03-25T18:34:19;6.40;99.90
12889;DHT22;56848;49.896;11.424;2023-03-25T18:36:45;6.30;99.90
12889;DHT22;56848;49.896;11.424;2023-03-25T18:39:13;6.30;99.90
12889;DHT22;56848;49.896;11.424;2023-03-25T18:41:39;6.40;99.90
12889;DHT22;56848;49.896;11.424;2023-03-25T18:44:06;6.30;99.90
12889;DHT22;56848;49.896;11.424;2023-03-25T18:46:32;6.20;99.90
12889;DHT22;56848;49.896;11.424;2023-03-25T18:48:57;6.30;99.90
12889;DHT22;56848;49.896;11.424;2023-03-25T18:51:29;6.40;99.90
12889;DHT22;56848;49.896;11.424;2023-03-25T18:53:56;6.40;99.90
12889;DHT22;56848;49.896;11.424;2023-03-25T18:56:21;6.40;99.90
12889;DHT22;56848;49.896;11.424;2023-03-25T18:58:49;6.40;99.90
12889;DHT22;56848;49.896;11.424;2023-03-25T19:01:14;6.50;99.90
12889;DHT22;56848;49.896;11.424;2023-03-25T19:03:41;6.50;99.90
12889;DHT22;56848;49.896;11.424;2023-03-25T19:06:12;6.70;99.90
12889;DHT22;56848;49.896;11.424;2023-03-25T19:08:39;6.70;99.90
12889;DHT22;56848;49.896;11.424;2023-03-25T19:11:06;6.70;99.90
12889;DHT22;56848;49.896;11.424;2023-03-25T19:13:31;6.80;99.90
12889;DHT22;56848;49.896;11.424;2023-03-25T19:15:57;7.00;99.90
12889;DHT22;56848;49.896;11.424;2023-03-25T19:18:25;6.90;99.90
12889;DHT22;56848;49.896;11.424;2023-03-25T19:20:51;7.10;99.90
12889;DHT22;56848;49.896;11.424;2023-03-25T19:23:18;6.90;99.90
12889;DHT22;56848;49.896;11.424;2023-03-25T19:25:45;6.80;99.90
12889;DHT22;56848;49.896;11.424;2023-03-25T19:28:13;6.90;99.90
12889;DHT22;56848;49.896;11.424;2023-03-25T19:30:39;6.80;99.90
12889;DHT22;56848;49.896;11.424;2023-03-25T19:33:05;7.00;99.90
12889;DHT22;56848;49.896;11.424;2023-03-25T19:35:31;7.10;99.90
12889;DHT22;56848;49.896;11.424;2023-03-25T19:37:57;7.10;99.90
12889;DHT22;56848;49.896;11.424;2023-03-25T19:40:28;7.10;99.90
12889;DHT22;56848;49.896;11.424;2023-03-25T19:42:56;7.20;99.90
12889;DHT22;56848;49.896;11.424;2023-03-25T19:45:23;7.10;99.90
12889;DHT22;56848;49.896;11.424;2023-03-25T19:47:48;7.10;99.90
12889;DHT22;56848;49.896;11.424;2023-03-25T19:50:27;6.90;99.90
12889;DHT22;56848;49.896;11.424;2023-03-25T19:52:54;6.90;99.90
12889;DHT22;56848;49.896;11.424;2023-03-25T19:55:20;6.90;99.90
12889;DHT22;56848;49.896;11.424;2023-03-25T19:57:46;6.80;99.90
12889;DHT22;56848;49.896;11.424;2023-03-25T20:00:18;7.00;99.90
12889;DHT22;56848;49.896;11.424;2023-03-25T20:02:47;7.00;99.90
12889;DHT22;56848;49.896;11.424;2023-03-25T20:05:14;7.10;99.90
12889;DHT22;56848;49.896;11.424;2023-03-25T20:07:42;7.10;99.90
12889;DHT22;56848;49.896;11.424;2023-03-25T20:10:11;7.10;99.90
12889;DHT22;56848;49.896;11.424;2023-03-25T20:12:37;7.20;99.90
12889;DHT22;56848;49.896;11.424;2023-03-25T20:15:04;7.20;99.90
12889;DHT22;56848;49.896;11.424;2023-03-25T20:17:31;7.30;99.90
12889;DHT22;56848;49.896;11.424;2023-03-25T20:19:57;7.30;99.90
12889;DHT22;56848;49.896;11.424;2023-03-25T20:22:22;7.30;99.90
12889;DHT22;56848;49.896;11.424;2023-03-25T20:24:48;7.30;99.90
12889;DHT22;56848;49.896;11.424;2023-03-25T20:27:14;7.50;99.90
12889;DHT22;56848;49.896;11.424;2023-03-25T20:29:39;7.50;99.90
12889;DHT22;56848;49.896;11.424;2023-03-25T20:32:05;7.50;99.90
12889;DHT22;56848;49.896;11.424;2023-03-25T20:34:32;7.40;99.90
12889;DHT22;56848;49.896;11.424;2023-03-25T20:36:58;7.40;99.90
12889;DHT22;56848;49.896;11.424;2023-03-25T20:39:26;7.40;99.90
12889;DHT22;56848;49.896;11.424;2023-03-25T20:41:52;7.30;99.90
12889;DHT22;56848;49.896;11.424;2023-03-25T20:44:17;7.30;99.90
12889;DHT22;56848;49.896;11.424;2023-03-25T20:46:43;7.40;99.90
12889;DHT22;56848;49.896;11.424;2023-03-25T20:49:13;7.30;99.90
12889;DHT22;56848;49.896;11.424;2023-03-25T20:51:40;7.30;99.90
12889;DHT22;56848;49.896;11.424;2023-03-25T20:54:06;7.20;99.90
12889;DHT22;56848;49.896;11.424;2023-03-25T20:56:32;7.10;99.90
12889;DHT22;56848;49.896;11.424;2023-03-25T20:58:58;7.00;99.90
12889;DHT22;56848;49.896;11.424;2023-03-25T21:01:23;7.00;99.90
12889;DHT22;56848;49.896;11.424;2023-03-25T21:03:49;7.00;99.90
12889;DHT22;56848;49.896;11.424;2023-03-25T21:06:17;7.00;99.90
12889;DHT22;56848;49.896;11.424;2023-03-25T21:08:43;6.80;99.90
12889;DHT22;56848;49.896;11.424;2023-03-25T21:11:12;6.80;99.90
12889;DHT22;56848;49.896;11.424;2023-03-25T21:13:39;6.60;99.90
12889;DHT22;56848;49.896;11.424;2023-03-25T21:16:05;6.60;99.90
12889;DHT22;56848;49.896;11.424;2023-03-25T21:18:31;6.60;99.90
12889;DHT22;56848;49.896;11.424;2023-03-25T21:20:58;6.80;99.90
12889;DHT22;56848;49.896;11.424;2023-03-25T21:23:24;6.80;99.90
12889;DHT22;56848;49.896;11.424;2023-03-25T21:25:55;6.70;99.90
12889;DHT22;56848;49.896;11.424;2023-03-25T21:28:21;6.70;99.90
12889;DHT22;56848;49.896;11.424;2023-03-25T21:30:47;6.70;99.90
12889;DHT22;56848;49.896;11.424;2023-03-25T21:33:13;6.50;99.90
12889;DHT22;56848;49.896;11.424;2023-03-25T21:35:43;6.50;99.90
12889;DHT22;56848;49.896;11.424;2023-03-25T21:38:10;6.30;99.90
12889;DHT22;56848;49.896;11.424;2023-03-25T21:40:36;6.30;99.90
